createdAt,value
2023-04-25T00:02:10.010Z,7.40
2023-04-25T00:04:39.126Z,7.40
2023-04-25T00:07:06.372Z,7.50
2023-04-25T00:09:33.237Z,7.50
2023-04-25T00:11:59.889Z,7.50
2023-04-25T00:14:26.718Z,7.60
2023-04-25T00:16:53.363Z,7.50
2023-04-25T00:19:20.043Z,7.50
2023-04-25T00:21:47.261Z,7.40
2023-04-25T00:24:14.237Z,7.40
2023-04-25T00:26:40.939Z,7.20
2023-04-25T00:29:07.626Z,7.30
2023-04-25T00:31:34.322Z,7.30
2023-04-25T00:34:01.124Z,7.30
2023-04-25T00:36:28.506Z,7.30
2023-04-25T00:38:55.979Z,7.20
2023-04-25T00:41:23.228Z,7.10
2023-04-25T00:43:51.072Z,7.10
2023-04-25T00:46:18.211Z,7.20
2023-04-25T00:48:44.881Z,7.10
2023-04-25T00:51:16.730Z,7.00
2023-04-25T00:53:43.884Z,7.00
2023-04-25T00:56:10.838Z,6.90
2023-04-25T00:58:38.354Z,6.90
2023-04-25T01:01:05.369Z,6.90
2023-04-25T01:03:36.570Z,6.90
2023-04-25T01:06:03.955Z,6.90
2023-04-25T01:08:31.258Z,6.80
2023-04-25T01:10:58.005Z,6.80
2023-04-25T01:13:24.694Z,6.80
2023-04-25T01:15:51.544Z,6.80
2023-04-25T01:18:19.804Z,6.80
2023-04-25T01:20:47.622Z,6.70
2023-04-25T01:23:15.128Z,6.70
2023-04-25T01:25:41.849Z,6.60
2023-04-25T01:28:09.055Z,6.60
2023-04-25T01:30:36.594Z,6.60
2023-04-25T01:33:06.302Z,6.70
2023-04-25T01:35:33.227Z,6.70
2023-04-25T01:38:00.614Z,6.80
2023-04-25T01:40:29.041Z,6.90
2023-04-25T01:42:55.784Z,7.00
2023-04-25T01:45:22.704Z,6.90
2023-04-25T01:47:50.849Z,6.90
2023-04-25T01:50:20.267Z,6.90
2023-04-25T01:52:47.048Z,6.80
2023-04-25T01:55:13.783Z,6.70
2023-04-25T01:57:40.780Z,6.70
2023-04-25T02:00:10.121Z,6.70
2023-04-25T02:02:37.135Z,6.60
2023-04-25T02:05:04.154Z,6.60
2023-04-25T02:07:31.162Z,6.50
2023-04-25T02:09:57.897Z,6.40
2023-04-25T02:12:25.399Z,6.40
2023-04-25T02:14:52.068Z,6.50
2023-04-25T02:17:18.814Z,6.30
2023-04-25T02:19:45.987Z,6.30
2023-04-25T02:22:12.722Z,6.30
2023-04-25T02:24:39.697Z,6.30
2023-04-25T02:27:06.944Z,6.20
2023-04-25T02:29:33.613Z,6.30
2023-04-25T02:32:00.244Z,6.30
2023-04-25T02:34:26.941Z,6.40
2023-04-25T02:36:53.594Z,6.40
2023-04-25T02:39:20.317Z,6.50
2023-04-25T02:41:47.019Z,6.60
2023-04-25T02:44:13.666Z,6.70
2023-04-25T02:46:40.389Z,6.70
2023-04-25T02:49:07.973Z,6.70
2023-04-25T02:51:34.811Z,6.70
2023-04-25T02:54:01.616Z,6.70
2023-04-25T02:56:28.443Z,6.80
2023-04-25T02:58:56.933Z,6.90
2023-04-25T03:01:23.665Z,6.90
2023-04-25T03:03:50.743Z,6.90
2023-04-25T03:06:17.722Z,6.90
2023-04-25T03:08:44.489Z,6.90
2023-04-25T03:11:11.604Z,6.90
2023-04-25T03:13:38.497Z,6.90
2023-04-25T03:16:05.707Z,6.90
2023-04-25T03:18:32.538Z,6.90
2023-04-25T03:20:59.255Z,7.00
2023-04-25T03:23:26.937Z,7.00
2023-04-25T03:25:53.593Z,7.00
2023-04-25T03:28:20.910Z,7.00
2023-04-25T03:30:47.617Z,7.00
2023-04-25T03:33:14.342Z,7.00
2023-04-25T03:35:41.014Z,6.90
2023-04-25T03:38:07.657Z,7.00
2023-04-25T03:40:34.646Z,7.00
2023-04-25T03:43:01.296Z,6.90
2023-04-25T03:45:27.970Z,6.90
2023-04-25T03:47:54.703Z,6.90
2023-04-25T03:50:21.482Z,6.90
2023-04-25T03:52:48.135Z,6.90
2023-04-25T03:55:14.813Z,6.90
2023-04-25T03:57:41.432Z,6.90
2023-04-25T04:00:08.904Z,7.00
2023-04-25T04:02:37.428Z,7.00
2023-04-25T04:05:05.085Z,7.00
2023-04-25T04:07:33.870Z,7.00
2023-04-25T04:10:00.972Z,7.00
2023-04-25T04:12:27.670Z,7.00
2023-04-25T04:14:54.308Z,7.00
2023-04-25T04:17:21.060Z,7.00
2023-04-25T04:19:47.708Z,7.00
2023-04-25T04:22:14.527Z,7.10
2023-04-25T04:24:41.224Z,7.10
2023-04-25T04:27:07.885Z,7.10
2023-04-25T04:29:34.546Z,7.10
2023-04-25T04:32:02.179Z,7.10
2023-04-25T04:34:30.242Z,7.10
2023-04-25T04:36:57.054Z,7.10
2023-04-25T04:39:23.867Z,7.20
2023-04-25T04:41:51.917Z,7.20
2023-04-25T04:44:18.578Z,7.20
2023-04-25T04:46:45.478Z,7.30
2023-04-25T04:49:14.629Z,7.30
2023-04-25T04:51:47.934Z,7.30
2023-04-25T04:54:14.618Z,7.30
2023-04-25T04:56:41.295Z,7.30
2023-04-25T04:59:08.120Z,7.30
2023-04-25T05:01:36.899Z,7.40
2023-04-25T05:04:04.638Z,7.40
2023-04-25T05:06:32.136Z,7.40
2023-04-25T05:08:59.152Z,7.40
2023-04-25T05:11:28.974Z,7.50
2023-04-25T05:13:55.772Z,7.50
2023-04-25T05:16:22.574Z,7.50
2023-04-25T05:18:49.355Z,7.50
2023-04-25T05:21:16.133Z,7.50
2023-04-25T05:23:42.850Z,7.50
2023-04-25T05:26:14.638Z,7.50
2023-04-25T05:28:42.744Z,7.70
2023-04-25T05:31:11.465Z,7.70
2023-04-25T05:33:38.420Z,7.70
2023-04-25T05:36:05.638Z,7.80
2023-04-25T05:38:34.608Z,7.90
2023-04-25T05:41:01.900Z,8.00
2023-04-25T05:43:28.604Z,8.10
2023-04-25T05:45:55.486Z,8.10
2023-04-25T05:48:22.299Z,8.20
2023-04-25T05:50:49.254Z,8.30
2023-04-25T05:53:16.180Z,8.30
2023-04-25T05:55:42.949Z,8.40
2023-04-25T05:58:09.680Z,8.30
2023-04-25T06:00:36.550Z,8.40
2023-04-25T06:03:03.639Z,8.40
2023-04-25T06:05:30.838Z,8.50
2023-04-25T06:07:57.801Z,8.60
2023-04-25T06:12:51.654Z,11.50
2023-04-25T06:15:27.969Z,8.80
2023-04-25T06:17:56.252Z,8.90
2023-04-25T06:20:25.019Z,10.00
2023-04-25T06:22:52.848Z,10.00
2023-04-25T06:25:19.741Z,11.10
2023-04-25T06:27:46.604Z,11.10
2023-04-25T06:32:40.597Z,11.10
2023-04-25T06:35:07.664Z,10.80
2023-04-25T06:37:34.411Z,10.40
2023-04-25T06:40:01.090Z,10.10
2023-04-25T06:42:27.832Z,10.10
2023-04-25T06:44:54.514Z,10.00
2023-04-25T06:47:21.317Z,10.00
2023-04-25T06:49:48.030Z,10.00
2023-04-25T06:52:14.803Z,10.20
2023-04-25T06:54:41.475Z,10.30
2023-04-25T06:57:08.154Z,10.50
2023-04-25T06:59:34.780Z,10.50
2023-04-25T07:02:01.451Z,10.50
2023-04-25T07:04:28.412Z,10.50
2023-04-25T07:06:55.920Z,10.50
2023-04-25T07:09:22.759Z,10.40
2023-04-25T07:11:49.495Z,10.60
2023-04-25T07:14:16.324Z,10.80
2023-04-25T07:16:43.086Z,10.80
2023-04-25T07:19:09.784Z,10.90
2023-04-25T07:21:37.338Z,10.90
2023-04-25T07:24:04.212Z,10.90
2023-04-25T07:26:30.854Z,10.80
2023-04-25T07:28:57.531Z,10.80
2023-04-25T07:31:24.849Z,10.70
2023-04-25T07:33:51.662Z,10.70
2023-04-25T07:36:18.394Z,10.50
2023-04-25T07:38:45.162Z,10.60
2023-04-25T07:41:11.844Z,10.40
2023-04-25T07:43:38.570Z,10.70
2023-04-25T07:46:05.991Z,11.00
2023-04-25T07:48:32.680Z,11.00
2023-04-25T07:50:59.468Z,11.00
2023-04-25T07:53:26.191Z,11.00
2023-04-25T07:55:53.127Z,11.20
2023-04-25T07:58:22.713Z,11.20
2023-04-25T08:00:49.959Z,11.30
2023-04-25T08:03:16.939Z,11.10
2023-04-25T08:05:44.444Z,11.30
2023-04-25T08:08:11.453Z,11.70
2023-04-25T08:10:38.211Z,11.70
2023-04-25T08:13:04.982Z,12.00
2023-04-25T08:15:31.709Z,12.30
2023-04-25T08:17:58.552Z,12.10
2023-04-25T08:20:26.076Z,11.90
2023-04-25T08:22:52.822Z,11.90
2023-04-25T08:25:19.606Z,11.60
2023-04-25T08:27:46.328Z,11.60
2023-04-25T08:30:13.556Z,11.30
2023-04-25T08:32:40.365Z,11.10
2023-04-25T08:35:07.808Z,11.10
2023-04-25T08:37:34.467Z,11.20
2023-04-25T08:40:01.161Z,11.40
2023-04-25T08:42:28.488Z,11.40
2023-04-25T08:44:56.227Z,11.00
2023-04-25T08:47:23.964Z,10.70
2023-04-25T08:49:54.470Z,10.40
2023-04-25T08:52:23.965Z,10.20
2023-04-25T08:54:52.198Z,10.20
2023-04-25T08:57:20.803Z,10.00
2023-04-25T08:59:48.445Z,10.10
2023-04-25T09:02:17.617Z,10.00
2023-04-25T09:04:45.137Z,9.90
2023-04-25T09:07:11.890Z,9.90
2023-04-25T09:09:38.667Z,9.80
2023-04-25T09:12:06.499Z,9.90
2023-04-25T09:14:33.217Z,9.90
2023-04-25T09:17:05.591Z,9.90
2023-04-25T09:19:41.070Z,10.60
2023-04-25T09:22:09.371Z,10.60
2023-04-25T09:24:47.198Z,11.00
2023-04-25T09:27:20.222Z,11.40
2023-04-25T09:29:47.371Z,11.50
2023-04-25T09:32:21.121Z,11.70
2023-04-25T09:34:49.473Z,11.90
2023-04-25T09:37:34.234Z,12.00
2023-04-25T09:40:06.587Z,12.20
2023-04-25T09:42:35.488Z,12.10
2023-04-25T09:45:03.334Z,11.90
2023-04-25T09:47:30.276Z,11.30
2023-04-25T09:49:57.037Z,11.30
2023-04-25T09:52:26.130Z,11.10
2023-04-25T09:54:53.481Z,10.80
2023-04-25T09:57:24.039Z,10.60
2023-04-25T09:59:55.841Z,10.70
2023-04-25T10:02:24.910Z,10.80
2023-04-25T10:04:55.723Z,11.00
2023-04-25T10:07:30.096Z,11.10
2023-04-25T10:10:02.754Z,11.30
2023-04-25T10:12:30.099Z,11.30
2023-04-25T10:14:57.219Z,11.10
2023-04-25T10:17:24.322Z,11.20
2023-04-25T10:19:52.317Z,11.20
2023-04-25T10:22:27.062Z,11.20
2023-04-25T10:24:54.263Z,11.40
2023-04-25T10:27:21.561Z,11.50
2023-04-25T10:30:05.656Z,11.50
2023-04-25T10:32:36.110Z,11.60
2023-04-25T10:35:24.658Z,11.60
2023-04-25T10:38:01.308Z,11.80
2023-04-25T10:40:28.355Z,12.40
2023-04-25T10:42:58.826Z,12.50
2023-04-25T10:47:52.801Z,12.10
2023-04-25T10:50:19.645Z,11.80
2023-04-25T10:52:46.388Z,11.40
2023-04-25T10:55:13.461Z,11.20
2023-04-25T10:57:42.880Z,10.90
2023-04-25T11:00:13.974Z,10.70
2023-04-25T11:02:58.273Z,10.60
2023-04-25T11:08:34.512Z,10.80
2023-04-25T11:11:01.316Z,11.10
2023-04-25T11:13:31.567Z,11.50
2023-04-25T11:16:07.179Z,11.70
2023-04-25T11:18:42.500Z,11.70
2023-04-25T11:21:09.331Z,11.70
2023-04-25T11:23:36.280Z,11.90
2023-04-25T11:26:06.328Z,11.90
2023-04-25T11:31:00.162Z,11.70
2023-04-25T11:33:28.410Z,11.70
2023-04-25T11:35:57.326Z,11.90
2023-04-25T11:38:27.167Z,12.00
2023-04-25T11:40:54.457Z,11.90
2023-04-25T11:43:24.082Z,12.00
2023-04-25T11:45:54.244Z,12.30
2023-04-25T11:48:22.715Z,12.00
2023-04-25T11:50:54.488Z,12.00
2023-04-25T11:53:21.433Z,12.50
2023-04-25T11:55:48.723Z,12.80
2023-04-25T11:58:15.473Z,12.60
2023-04-25T12:00:50.224Z,12.10
2023-04-25T12:03:19.425Z,12.20
2023-04-25T12:05:47.550Z,12.20
2023-04-25T12:08:15.755Z,12.30
2023-04-25T12:10:44.478Z,12.20
2023-04-25T12:13:25.559Z,12.20
2023-04-25T12:15:52.894Z,12.50
2023-04-25T12:18:24.878Z,12.60
2023-04-25T12:20:53.167Z,13.00
2023-04-25T12:23:28.282Z,13.20
2023-04-25T12:25:55.202Z,13.20
2023-04-25T12:28:28.660Z,13.10
2023-04-25T12:31:06.672Z,13.20
2023-04-25T12:33:34.307Z,13.20
2023-04-25T12:36:06.417Z,13.10
2023-04-25T12:38:37.969Z,12.90
2023-04-25T12:41:04.675Z,12.60
2023-04-25T12:43:31.749Z,12.60
2023-04-25T12:45:58.528Z,12.40
2023-04-25T12:48:25.452Z,12.30
2023-04-25T12:50:52.918Z,12.30
2023-04-25T12:53:21.420Z,12.20
2023-04-25T12:55:48.789Z,12.30
2023-04-25T12:58:16.553Z,12.10
2023-04-25T13:00:44.167Z,12.00
2023-04-25T13:03:12.217Z,12.10
2023-04-25T13:05:39.993Z,12.00
2023-04-25T13:08:06.754Z,12.00
2023-04-25T13:10:34.836Z,12.00
2023-04-25T13:13:02.228Z,12.00
2023-04-25T13:15:29.310Z,12.20
2023-04-25T13:17:57.093Z,12.20
2023-04-25T13:20:24.225Z,12.90
2023-04-25T13:22:50.982Z,13.30
2023-04-25T13:25:17.793Z,13.30
2023-04-25T13:27:45.691Z,13.60
2023-04-25T13:30:12.955Z,13.30
2023-04-25T13:32:40.512Z,13.10
2023-04-25T13:35:11.130Z,12.90
2023-04-25T13:37:38.809Z,12.80
2023-04-25T13:40:10.736Z,12.40
2023-04-25T13:42:38.401Z,12.00
2023-04-25T13:45:05.612Z,11.90
2023-04-25T13:47:32.381Z,12.00
2023-04-25T13:52:27.162Z,12.40
2023-04-25T13:54:53.887Z,12.50
2023-04-25T13:59:47.846Z,12.50
2023-04-25T14:02:14.745Z,12.90
2023-04-25T14:04:42.176Z,12.40
2023-04-25T14:09:36.355Z,12.70
2023-04-25T14:12:03.373Z,12.70
2023-04-25T14:14:30.016Z,12.70
2023-04-25T14:16:58.064Z,12.90
2023-04-25T14:19:25.626Z,12.90
2023-04-25T14:21:52.345Z,13.00
2023-04-25T14:24:19.060Z,12.70
2023-04-25T14:26:46.040Z,12.60
2023-04-25T14:29:13.069Z,12.40
2023-04-25T14:31:41.303Z,12.60
2023-04-25T14:34:09.033Z,12.90
2023-04-25T14:36:37.297Z,13.00
2023-04-25T14:39:06.171Z,12.60
2023-04-25T14:41:33.293Z,12.30
2023-04-25T14:44:00.100Z,12.40
2023-04-25T14:46:27.527Z,12.50
2023-04-25T14:48:56.692Z,12.50
2023-04-25T14:51:23.482Z,12.50
2023-04-25T14:53:51.469Z,12.60
2023-04-25T14:56:18.599Z,12.60
2023-04-25T14:58:46.413Z,12.20
2023-04-25T15:03:44.088Z,11.90
2023-04-25T15:06:11.599Z,11.60
2023-04-25T15:11:05.681Z,11.30
2023-04-25T15:13:32.941Z,11.20
2023-04-25T15:15:59.639Z,11.30
2023-04-25T15:20:54.437Z,11.50
2023-04-25T15:23:22.410Z,11.60
2023-04-25T15:25:51.558Z,11.80
2023-04-25T15:28:18.297Z,12.00
2023-04-25T15:30:45.914Z,12.10
2023-04-25T15:33:12.706Z,12.10
2023-04-25T15:35:39.408Z,12.20
2023-04-25T15:38:06.555Z,12.30
2023-04-25T15:40:33.238Z,12.60
2023-04-25T15:43:00.557Z,12.70
2023-04-25T15:45:27.307Z,12.80
2023-04-25T15:47:56.850Z,13.00
2023-04-25T15:50:24.184Z,12.80
2023-04-25T15:52:51.624Z,12.80
2023-04-25T15:55:21.115Z,12.70
2023-04-25T15:57:49.884Z,12.70
2023-04-25T16:02:45.994Z,12.20
2023-04-25T16:05:14.510Z,12.10
2023-04-25T16:07:42.819Z,12.00
2023-04-25T16:10:11.191Z,12.00
2023-04-25T16:12:38.892Z,12.00
2023-04-25T16:15:06.272Z,11.90
2023-04-25T16:17:33.393Z,11.80
2023-04-25T16:20:03.004Z,11.80
2023-04-25T16:22:29.678Z,11.70
2023-04-25T16:24:56.344Z,11.80
2023-04-25T16:27:23.093Z,11.80
2023-04-25T16:29:51.360Z,11.80
2023-04-25T16:32:18.308Z,11.90
2023-04-25T16:34:45.532Z,11.90
2023-04-25T16:37:12.248Z,11.80
2023-04-25T16:39:38.876Z,11.80
2023-04-25T16:42:06.325Z,11.80
2023-04-25T16:44:33.073Z,11.60
2023-04-25T16:46:59.960Z,11.60
2023-04-25T16:49:26.900Z,11.40
2023-04-25T16:51:53.730Z,11.40
2023-04-25T16:54:20.847Z,11.30
2023-04-25T16:56:47.600Z,11.30
2023-04-25T17:01:41.525Z,11.30
2023-04-25T17:06:35.625Z,11.50
2023-04-25T17:09:02.367Z,11.40
2023-04-25T17:11:29.260Z,11.40
2023-04-25T17:13:56.070Z,11.30
2023-04-25T17:16:23.334Z,11.30
2023-04-25T17:18:53.609Z,11.30
2023-04-25T17:21:20.597Z,11.20
2023-04-25T17:23:47.480Z,11.20
2023-04-25T17:26:15.206Z,11.20
2023-04-25T17:28:45.087Z,11.20
2023-04-25T17:33:39.521Z,11.20
2023-04-25T17:36:07.098Z,11.30
2023-04-25T17:41:02.831Z,11.20
2023-04-25T17:43:29.835Z,11.20
2023-04-25T17:45:56.939Z,11.20
2023-04-25T17:48:23.775Z,11.20
2023-04-25T17:50:52.035Z,11.20
2023-04-25T17:53:18.790Z,11.10
2023-04-25T17:55:45.534Z,11.00
2023-04-25T17:58:12.364Z,10.70
2023-04-25T18:00:39.327Z,10.70
2023-04-25T18:03:06.921Z,10.50
2023-04-25T18:05:33.845Z,10.50
2023-04-25T18:08:00.894Z,10.30
2023-04-25T18:10:27.669Z,10.30
2023-04-25T18:12:54.553Z,10.30
2023-04-25T18:15:22.144Z,10.20
2023-04-25T18:17:49.152Z,10.10
2023-04-25T18:20:19.035Z,10.10
2023-04-25T18:22:46.927Z,10.00
2023-04-25T18:27:42.122Z,9.90
2023-04-25T18:30:10.866Z,9.80
2023-04-25T18:32:38.149Z,9.80
2023-04-25T18:35:05.936Z,9.70
2023-04-25T18:39:59.777Z,9.60
2023-04-25T18:44:53.605Z,9.60
2023-04-25T18:47:20.278Z,9.60
2023-04-25T18:49:47.881Z,9.50
2023-04-25T18:52:16.043Z,9.40
2023-04-25T18:54:43.142Z,9.40
2023-04-25T18:57:11.543Z,9.40
2023-04-25T18:59:38.252Z,9.40
2023-04-25T19:04:32.812Z,9.30
2023-04-25T19:06:59.784Z,9.20
2023-04-25T19:09:33.140Z,9.20
2023-04-25T19:11:59.948Z,9.10
2023-04-25T19:14:28.372Z,9.00
2023-04-25T19:16:55.210Z,8.90
2023-04-25T19:21:50.846Z,8.80
2023-04-25T19:24:17.664Z,8.80
2023-04-25T19:29:14.669Z,8.80
2023-04-25T19:31:44.496Z,8.70
2023-04-25T19:36:40.849Z,8.70
2023-04-25T19:39:08.277Z,8.60
2023-04-25T19:41:37.158Z,8.50
2023-04-25T19:44:07.113Z,8.50
2023-04-25T19:46:35.692Z,8.50
2023-04-25T19:51:34.087Z,8.40
2023-04-25T19:56:27.932Z,8.20
2023-04-25T19:58:54.805Z,8.20
2023-04-25T20:01:22.436Z,8.20
2023-04-25T20:08:47.394Z,8.20
2023-04-25T20:21:03.803Z,7.80
2023-04-25T20:25:57.569Z,7.80
2023-04-25T20:33:18.714Z,7.70
2023-04-25T20:35:46.237Z,7.80
2023-04-25T20:43:07.315Z,7.60
2023-04-25T20:45:34.571Z,7.60
2023-04-25T20:52:57.224Z,7.50
2023-04-25T20:57:51.971Z,7.50
2023-04-25T21:00:26.390Z,7.30
2023-04-25T21:02:53.698Z,7.30
2023-04-25T21:07:49.727Z,7.30
2023-04-25T21:10:20.143Z,7.20
2023-04-25T21:12:51.635Z,7.10
2023-04-25T21:15:21.526Z,7.00
2023-04-25T21:17:49.493Z,7.00
2023-04-25T21:20:20.657Z,6.90
2023-04-25T21:22:53.913Z,7.00
2023-04-25T21:25:31.116Z,6.90
2023-04-25T21:27:58.940Z,6.90
2023-04-25T21:32:53.622Z,6.80
2023-04-25T21:35:22.102Z,6.80
2023-04-25T21:37:49.626Z,6.80
2023-04-25T21:40:16.541Z,6.80
2023-04-25T21:42:44.711Z,6.80
2023-04-25T21:45:12.288Z,6.70
2023-04-25T21:47:39.458Z,6.70
2023-04-25T21:52:36.312Z,6.80
2023-04-25T21:55:03.289Z,6.70
2023-04-25T21:57:30.099Z,6.80
2023-04-25T22:02:24.712Z,6.70
2023-04-25T22:09:54.483Z,6.60
2023-04-25T22:14:50.735Z,6.40
2023-04-25T22:17:17.873Z,6.40
2023-04-25T22:22:11.915Z,6.40
2023-04-25T22:24:38.851Z,6.30
2023-04-25T22:29:32.869Z,6.20
2023-04-25T22:36:55.347Z,6.20
2023-04-25T22:41:49.842Z,6.10
2023-04-25T22:44:16.673Z,6.10
2023-04-25T22:46:43.800Z,6.10
2023-04-25T22:49:10.441Z,6.00
2023-04-25T22:51:37.139Z,6.00
2023-04-25T22:54:05.379Z,6.10
2023-04-25T22:56:32.677Z,6.20
2023-04-25T22:58:59.491Z,6.20
2023-04-25T23:01:27.858Z,6.20
2023-04-25T23:03:55.033Z,6.30
2023-04-25T23:06:21.883Z,6.20
2023-04-25T23:08:48.639Z,6.20
2023-04-25T23:11:15.557Z,6.10
2023-04-25T23:13:42.317Z,6.10
2023-04-25T23:16:10.680Z,5.90
2023-04-25T23:18:39.115Z,5.90
2023-04-25T23:21:11.258Z,5.90
2023-04-25T23:23:38.658Z,5.90
2023-04-25T23:26:10.224Z,5.80
2023-04-25T23:28:40.611Z,5.60
2023-04-25T23:31:09.932Z,5.70
2023-04-25T23:33:36.742Z,5.50
2023-04-25T23:36:03.679Z,5.50
2023-04-25T23:38:30.443Z,5.50
2023-04-25T23:40:57.168Z,5.50
2023-04-25T23:43:23.883Z,5.40
2023-04-25T23:45:50.603Z,5.40
2023-04-25T23:48:17.397Z,5.40
2023-04-25T23:50:44.082Z,5.30
2023-04-25T23:53:11.515Z,5.40
2023-04-25T23:55:38.343Z,5.40
2023-04-25T23:58:05.017Z,5.30
